McDowell, VA (24458)

6:35 AM EDT on September 20, 2014 (GMT -0400)
Mountain Meadow Farm | Change Station
CLOSE
Current Station
Personal Weather Station
Location: Goshen, VA
Elevation: 1532 ft
Nearby Weather Stations

Elev 1532 ft 38.05 °N, 79.48 °W | Updated 2 minutes ago

Overcast
Overcast
55.9 °F
Feels Like 55.9 °F
N
0.0
Wind Variable Wind from SSE
Gusts 1.0 mph

Today
High -- | Low -- °F
--% Chance of Precip.
Yesterday
High -- | Low -- °F
Precip. -- in
7:04 AM 7:18 PM
Waning Crescent, 13% visible
Pressure 30.32 in
Visibility 7.0 miles
Clouds Scattered Clouds 400 ft
Scattered Clouds 3000 ft
Mostly Cloudy 4100 ft
Dew Point 55 °F
Humidity 96%
Rainfall 0.00 in
Snow Depth Not available.
UV 0 out of 12
Pollen 4.00 out of 12
Air Quality Not available.
Flu Activity Not available.
METAR KHSP 201015Z AUTO 17007KT 7SM SCT004 SCT030 BKN041 10/09 A3032 RMK AO2 T01040094

More Conditions Fewer Conditions

Pressure 30.32 in
Visibility 7.0 miles
Clouds Scattered Clouds 400 ft
Scattered Clouds 3000 ft
Mostly Cloudy 4100 ft
Dew Point 55 °F
Humidity 96%
Rainfall 0.00 in
Snow Depth Not available.
UV 0 out of 12
Pollen 4.00 out of 12
Air Quality Not available.
Flu Activity Not available.
METAR KHSP 201015Z AUTO 17007KT 7SM SCT004 SCT030 BKN041 10/09 A3032 RMK AO2 T01040094

More Conditions Fewer Conditions

10-Day Weather Forecast

Almanac

Astronomy

Sep. 20, 2014 Rise Set
Actual Time 7:04 AM EDT 7:18 PM EDT
Civil Twilight 6:37 AM EDT 7:44 PM EDT
Nautical Twilight 6:06 AM EDT 8:15 PM EDT
Astronomical Twilight 5:35 AM EDT 8:46 PM EDT
Moon 3:44 AM EDT 5:18 PM EDT
Length of Visible Light 13h 06m
Length of Day
12h 14m
Tomorrow will be 2m 26s shorter.
Waning Crescent, 13% of the Moon is Illuminated
Today
Waning Crescent
Sep 24
New
Oct 1
First Quarter
Oct 8
Full
Oct 15
Last Quarter

Today's Extremes

State Highs State Lows

Community

WunderPhotos

Upload Photos

1,754,827 photos uploaded!

WunderBlogs® & News

Nearby

Snow Depth

Station Depth Elevation
No new snow has been reported.

Earthquake Activity

City Distance Mag. Time & Date
No recent earthquake activity has been reported nearby.
Minimum magnitude displayed is 2.5.

Coastal Water Temperatures

Place Temperature
No Stations Reporting

Nearby Weather Stations